sensor_id;sensor_type;location;lat;lon;timestamp;pressure;altitude;pressure_sealevel;temperature;humidity
47761;BME280;33524;55.434;38.520;2024-03-08T00:00:21;100325.19;;;-3.83;83.92
47761;BME280;33524;55.434;38.520;2024-03-08T00:02:49;100320.91;;;-3.85;83.61
47761;BME280;33524;55.434;38.520;2024-03-08T00:05:20;100315.78;;;-3.85;83.57
47761;BME280;33524;55.434;38.520;2024-03-08T00:07:49;100316.16;;;-4.09;83.47
47761;BME280;33524;55.434;38.520;2024-03-08T00:10:17;100302.66;;;-4.27;84.12
47761;BME280;33524;55.434;38.520;2024-03-08T00:12:45;100306.75;;;-4.81;84.17
47761;BME280;33524;55.434;38.520;2024-03-08T00:15:16;100318.69;;;-5.73;85.46
47761;BME280;33524;55.434;38.520;2024-03-08T00:17:47;100310.47;;;-5.10;88.92
47761;BME280;33524;55.434;38.520;2024-03-08T00:20:16;100301.97;;;-5.15;87.89
47761;BME280;33524;55.434;38.520;2024-03-08T00:22:47;100307.34;;;-5.44;88.33
47761;BME280;33524;55.434;38.520;2024-03-08T00:25:16;100292.38;;;-4.96;88.72
47761;BME280;33524;55.434;38.520;2024-03-08T00:27:44;100297.22;;;-4.69;87.14
47761;BME280;33524;55.434;38.520;2024-03-08T00:30:12;100294.66;;;-4.70;86.76
47761;BME280;33524;55.434;38.520;2024-03-08T00:32:44;100297.00;;;-4.50;86.59
47761;BME280;33524;55.434;38.520;2024-03-08T00:35:12;100300.06;;;-4.23;85.25
47761;BME280;33524;55.434;38.520;2024-03-08T00:37:41;100289.56;;;-4.05;84.32
47761;BME280;33524;55.434;38.520;2024-03-08T00:40:10;100281.03;;;-4.09;83.06
47761;BME280;33524;55.434;38.520;2024-03-08T00:42:38;100281.44;;;-4.38;85.17
47761;BME280;33524;55.434;38.520;2024-03-08T00:45:08;100276.06;;;-4.19;84.26
47761;BME280;33524;55.434;38.520;2024-03-08T00:47:38;100280.28;;;-4.15;84.08
47761;BME280;33524;55.434;38.520;2024-03-08T00:50:07;100275.63;;;-4.52;85.34
47761;BME280;33524;55.434;38.520;2024-03-08T00:52:37;100267.56;;;-4.26;84.54
47761;BME280;33524;55.434;38.520;2024-03-08T00:55:06;100260.81;;;-4.33;84.56
47761;BME280;33524;55.434;38.520;2024-03-08T00:57:35;100258.19;;;-4.29;84.24
47761;BME280;33524;55.434;38.520;2024-03-08T01:00:05;100250.56;;;-4.33;84.23
47761;BME280;33524;55.434;38.520;2024-03-08T01:02:39;100254.09;;;-4.42;84.74
47761;BME280;33524;55.434;38.520;2024-03-08T01:05:07;100251.00;;;-4.67;85.00
47761;BME280;33524;55.434;38.520;2024-03-08T01:07:36;100232.72;;;-5.12;83.42
47761;BME280;33524;55.434;38.520;2024-03-08T01:10:06;100245.59;;;-5.18;85.02
47761;BME280;33524;55.434;38.520;2024-03-08T01:12:38;100232.47;;;-5.77;84.14
47761;BME280;33524;55.434;38.520;2024-03-08T01:15:08;100237.37;;;-6.75;80.14
47761;BME280;33524;55.434;38.520;2024-03-08T01:17:37;100236.66;;;-7.12;82.59
47761;BME280;33524;55.434;38.520;2024-03-08T01:20:06;100231.56;;;-7.14;84.76
47761;BME280;33524;55.434;38.520;2024-03-08T01:22:35;100226.53;;;-7.41;84.35
47761;BME280;33524;55.434;38.520;2024-03-08T01:25:04;100220.78;;;-6.06;90.46
47761;BME280;33524;55.434;38.520;2024-03-08T01:27:32;100219.87;;;-5.97;89.57
47761;BME280;33524;55.434;38.520;2024-03-08T01:30:03;100226.22;;;-6.58;85.18
47761;BME280;33524;55.434;38.520;2024-03-08T01:32:32;100232.47;;;-7.35;86.71
47761;BME280;33524;55.434;38.520;2024-03-08T01:35:01;100239.31;;;-7.97;87.44
47761;BME280;33524;55.434;38.520;2024-03-08T01:37:31;100231.66;;;-8.18;86.49
47761;BME280;33524;55.434;38.520;2024-03-08T01:39:59;100235.03;;;-8.27;86.47
47761;BME280;33524;55.434;38.520;2024-03-08T01:42:29;100218.03;;;-8.29;86.66
47761;BME280;33524;55.434;38.520;2024-03-08T01:44:58;100214.63;;;-8.35;86.81
47761;BME280;33524;55.434;38.520;2024-03-08T01:47:26;100213.78;;;-8.27;87.53
47761;BME280;33524;55.434;38.520;2024-03-08T01:49:54;100219.72;;;-8.35;88.30
47761;BME280;33524;55.434;38.520;2024-03-08T01:52:23;100210.37;;;-8.33;88.62
47761;BME280;33524;55.434;38.520;2024-03-08T01:54:53;100224.00;;;-8.30;88.85
47761;BME280;33524;55.434;38.520;2024-03-08T01:57:21;100218.03;;;-8.28;89.14
47761;BME280;33524;55.434;38.520;2024-03-08T01:59:50;100214.63;;;-8.21;88.57
47761;BME280;33524;55.434;38.520;2024-03-08T02:02:18;100213.78;;;-8.21;88.23
47761;BME280;33524;55.434;38.520;2024-03-08T02:04:48;100200.16;;;-8.36;87.72
47761;BME280;33524;55.434;38.520;2024-03-08T02:07:16;100212.91;;;-8.36;87.88
47761;BME280;33524;55.434;38.520;2024-03-08T02:09:44;100212.91;;;-8.48;88.98
47761;BME280;33524;55.434;38.520;2024-03-08T02:12:13;100207.81;;;-8.43;89.76
47761;BME280;33524;55.434;38.520;2024-03-08T02:14:41;100206.94;;;-8.65;90.03
47761;BME280;33524;55.434;38.520;2024-03-08T02:17:11;100203.50;;;-8.70;90.20
47761;BME280;33524;55.434;38.520;2024-03-08T02:19:41;100183.97;;;-8.82;91.83
47761;BME280;33524;55.434;38.520;2024-03-08T02:22:09;100194.25;;;-8.10;91.94
47761;BME280;33524;55.434;38.520;2024-03-08T02:24:37;100194.13;;;-7.25;95.61
47761;BME280;33524;55.434;38.520;2024-03-08T02:27:06;100188.19;;;-7.35;95.63
47761;BME280;33524;55.434;38.520;2024-03-08T02:29:35;100197.44;;;-7.03;95.49
47761;BME280;33524;55.434;38.520;2024-03-08T02:32:03;100181.62;;;-6.19;96.14
47761;BME280;33524;55.434;38.520;2024-03-08T02:34:32;100175.94;;;-5.60;93.78
47761;BME280;33524;55.434;38.520;2024-03-08T02:37:00;100178.19;;;-5.28;91.73
47761;BME280;33524;55.434;38.520;2024-03-08T02:39:29;100173.38;;;-5.59;90.55
47761;BME280;33524;55.434;38.520;2024-03-08T02:41:57;100173.13;;;-5.34;90.61
47761;BME280;33524;55.434;38.520;2024-03-08T02:44:25;100158.50;;;-5.26;90.39
47761;BME280;33524;55.434;38.520;2024-03-08T02:46:53;100160.91;;;-5.12;89.41
47761;BME280;33524;55.434;38.520;2024-03-08T02:49:23;100172.87;;;-5.13;88.29
47761;BME280;33524;55.434;38.520;2024-03-08T02:51:51;100166.94;;;-5.16;89.19
47761;BME280;33524;55.434;38.520;2024-03-08T02:54:20;100159.00;;;-4.96;87.99
47761;BME280;33524;55.434;38.520;2024-03-08T02:56:49;100156.69;;;-5.18;88.54
47761;BME280;33524;55.434;38.520;2024-03-08T02:59:20;100156.56;;;-5.09;88.16
47761;BME280;33524;55.434;38.520;2024-03-08T03:01:48;100160.69;;;-4.95;87.85
47761;BME280;33524;55.434;38.520;2024-03-08T03:04:16;100152.53;;;-5.28;87.25
47761;BME280;33524;55.434;38.520;2024-03-08T03:06:44;100152.03;;;-5.58;88.75
47761;BME280;33524;55.434;38.520;2024-03-08T03:09:14;100142.63;;;-5.57;88.32
47761;BME280;33524;55.434;38.520;2024-03-08T03:11:44;100140.59;;;-6.10;85.17
47761;BME280;33524;55.434;38.520;2024-03-08T03:14:12;100131.53;;;-6.52;85.61
47761;BME280;33524;55.434;38.520;2024-03-08T03:16:41;100135.69;;;-6.36;87.90
47761;BME280;33524;55.434;38.520;2024-03-08T03:19:11;100128.69;;;-6.15;88.83
47761;BME280;33524;55.434;38.520;2024-03-08T03:21:40;100128.84;;;-6.35;87.14
47761;BME280;33524;55.434;38.520;2024-03-08T03:24:08;100131.75;;;-6.86;87.54
47761;BME280;33524;55.434;38.520;2024-03-08T03:26:38;100125.66;;;-6.68;90.31
47761;BME280;33524;55.434;38.520;2024-03-08T03:29:09;100120.38;;;-6.42;91.23
47761;BME280;33524;55.434;38.520;2024-03-08T03:31:38;100109.81;;;-6.03;91.61
47761;BME280;33524;55.434;38.520;2024-03-08T03:34:07;100113.88;;;-5.85;91.89
47761;BME280;33524;55.434;38.520;2024-03-08T03:36:36;100117.12;;;-5.68;91.27
47761;BME280;33524;55.434;38.520;2024-03-08T03:39:05;100110.97;;;-5.53;90.78
47761;BME280;33524;55.434;38.520;2024-03-08T03:41:39;100087.13;;;-5.60;90.48
47761;BME280;33524;55.434;38.520;2024-03-08T03:44:08;100113.88;;;-5.87;88.54
47761;BME280;33524;55.434;38.520;2024-03-08T03:46:37;100097.34;;;-6.45;89.49
47761;BME280;33524;55.434;38.520;2024-03-08T03:49:06;100112.03;;;-6.67;89.48
47761;BME280;33524;55.434;38.520;2024-03-08T03:51:35;100104.09;;;-6.35;92.15
47761;BME280;33524;55.434;38.520;2024-03-08T03:54:03;100094.37;;;-5.96;91.58
47761;BME280;33524;55.434;38.520;2024-03-08T03:56:31;100084.41;;;-6.25;90.70
47761;BME280;33524;55.434;38.520;2024-03-08T03:58:59;100101.06;;;-6.87;90.58
47761;BME280;33524;55.434;38.520;2024-03-08T04:01:27;100087.09;;;-6.40;93.21
47761;BME280;33524;55.434;38.520;2024-03-08T04:03:57;100087.38;;;-6.79;92.14
47761;BME280;33524;55.434;38.520;2024-03-08T04:06:25;100060.91;;;-6.72;93.33
47761;BME280;33524;55.434;38.520;2024-03-08T04:08:53;100076.81;;;-6.34;93.61
47761;BME280;33524;55.434;38.520;2024-03-08T04:11:22;100082.88;;;-6.47;92.43
47761;BME280;33524;55.434;38.520;2024-03-08T04:13:50;100065.59;;;-6.21;93.19
47761;BME280;33524;55.434;38.520;2024-03-08T04:16:20;100048.91;;;-5.78;92.46
47761;BME280;33524;55.434;38.520;2024-03-08T04:18:48;100073.72;;;-5.85;90.72
47761;BME280;33524;55.434;38.520;2024-03-08T04:21:17;100062.31;;;-5.56;90.85
47761;BME280;33524;55.434;38.520;2024-03-08T04:23:47;100075.50;;;-5.90;89.73
47761;BME280;33524;55.434;38.520;2024-03-08T04:26:15;100064.66;;;-6.12;89.76
47761;BME280;33524;55.434;38.520;2024-03-08T04:28:46;100073.09;;;-7.15;86.16
47761;BME280;33524;55.434;38.520;2024-03-08T04:31:13;100073.31;;;-7.58;86.57
47761;BME280;33524;55.434;38.520;2024-03-08T04:33:47;100070.84;;;-7.91;87.95
47761;BME280;33524;55.434;38.520;2024-03-08T04:36:16;100070.91;;;-8.06;88.77
47761;BME280;33524;55.434;38.520;2024-03-08T04:38:46;100069.19;;;-8.07;89.53
47761;BME280;33524;55.434;38.520;2024-03-08T04:41:14;100074.25;;;-7.96;90.01
47761;BME280;33524;55.434;38.520;2024-03-08T04:43:42;100078.50;;;-7.89;90.50
47761;BME280;33524;55.434;38.520;2024-03-08T04:46:11;100065.72;;;-7.81;90.63
47761;BME280;33524;55.434;38.520;2024-03-08T04:48:38;100075.06;;;-7.83;90.13
47761;BME280;33524;55.434;38.520;2024-03-08T04:51:07;100077.69;;;-7.99;89.60
47761;BME280;33524;55.434;38.520;2024-03-08T04:53:35;100071.75;;;-8.12;89.21
47761;BME280;33524;55.434;38.520;2024-03-08T04:56:03;100076.00;;;-8.20;90.93
47761;BME280;33524;55.434;38.520;2024-03-08T04:58:37;100071.75;;;-8.16;92.92
47761;BME280;33524;55.434;38.520;2024-03-08T05:01:06;100070.03;;;-8.09;92.40
47761;BME280;33524;55.434;38.520;2024-03-08T05:03:38;100081.00;;;-7.67;91.96
47761;BME280;33524;55.434;38.520;2024-03-08T05:06:07;100075.03;;;-7.71;91.49
47761;BME280;33524;55.434;38.520;2024-03-08T05:08:36;100083.56;;;-7.64;91.82
47761;BME280;33524;55.434;38.520;2024-03-08T05:11:04;100079.22;;;-7.45;91.65
47761;BME280;33524;55.434;38.520;2024-03-08T05:13:35;100081.59;;;-7.13;91.29
47761;BME280;33524;55.434;38.520;2024-03-08T05:16:03;100076.31;;;-6.82;92.27
47761;BME280;33524;55.434;38.520;2024-03-08T05:18:32;100064.16;;;-6.53;91.66
47761;BME280;33524;55.434;38.520;2024-03-08T05:21:00;100049.56;;;-6.41;91.80
47761;BME280;33524;55.434;38.520;2024-03-08T05:23:31;100059.69;;;-6.27;92.22
47761;BME280;33524;55.434;38.520;2024-03-08T05:25:59;100053.75;;;-6.31;92.42
47761;BME280;33524;55.434;38.520;2024-03-08T05:28:29;100052.91;;;-6.32;92.14
47761;BME280;33524;55.434;38.520;2024-03-08T05:30:56;100059.69;;;-6.27;92.66
47761;BME280;33524;55.434;38.520;2024-03-08T05:33:24;100057.06;;;-6.20;92.89
47761;BME280;33524;55.434;38.520;2024-03-08T05:35:53;100038.19;;;-6.11;92.68
47761;BME280;33524;55.434;38.520;2024-03-08T05:38:21;100045.06;;;-6.13;92.90
47761;BME280;33524;55.434;38.520;2024-03-08T05:40:49;100045.88;;;-6.11;92.97
47761;BME280;33524;55.434;38.520;2024-03-08T05:43:19;100042.50;;;-6.13;93.10
47761;BME280;33524;55.434;38.520;2024-03-08T05:45:47;100039.16;;;-6.20;93.23
47761;BME280;33524;55.434;38.520;2024-03-08T05:48:15;100031.38;;;-6.12;93.32
47761;BME280;33524;55.434;38.520;2024-03-08T05:50:43;100039.03;;;-6.07;93.37
47761;BME280;33524;55.434;38.520;2024-03-08T05:53:12;100047.44;;;-5.98;93.56
47761;BME280;33524;55.434;38.520;2024-03-08T05:55:40;100048.16;;;-5.86;93.97
47761;BME280;33524;55.434;38.520;2024-03-08T05:58:09;100042.84;;;-5.71;94.06
47761;BME280;33524;55.434;38.520;2024-03-08T06:00:39;100046.22;;;-5.66;94.03
47761;BME280;33524;55.434;38.520;2024-03-08T06:03:07;100046.94;;;-5.56;94.11
47761;BME280;33524;55.434;38.520;2024-03-08T06:05:36;100037.59;;;-5.60;93.84
47761;BME280;33524;55.434;38.520;2024-03-08T06:08:10;100041.78;;;-5.52;94.15
47761;BME280;33524;55.434;38.520;2024-03-08T06:10:39;100034.88;;;-5.47;93.98
47761;BME280;33524;55.434;38.520;2024-03-08T06:13:07;100041.59;;;-5.38;94.21
47761;BME280;33524;55.434;38.520;2024-03-08T06:15:35;100047.53;;;-5.36;94.27
47761;BME280;33524;55.434;38.520;2024-03-08T06:18:03;100039.84;;;-5.34;94.20
47761;BME280;33524;55.434;38.520;2024-03-08T06:20:33;100043.81;;;-5.12;94.20
47761;BME280;33524;55.434;38.520;2024-03-08T06:23:02;100042.72;;;-4.97;94.15
47761;BME280;33524;55.434;38.520;2024-03-08T06:25:30;100039.31;;;-4.97;93.69
47761;BME280;33524;55.434;38.520;2024-03-08T06:27:59;100031.53;;;-4.91;93.88
47761;BME280;33524;55.434;38.520;2024-03-08T06:30:27;100021.94;;;-4.80;93.66
47761;BME280;33524;55.434;38.520;2024-03-08T06:32:55;100031.91;;;-4.60;93.84
47761;BME280;33524;55.434;38.520;2024-03-08T06:35:23;100032.09;;;-4.72;93.50
47761;BME280;33524;55.434;38.520;2024-03-08T06:37:51;100029.41;;;-4.64;94.00
47761;BME280;33524;55.434;38.520;2024-03-08T06:40:19;100027.31;;;-4.42;94.09
47761;BME280;33524;55.434;38.520;2024-03-08T06:42:47;100030.75;;;-4.42;93.27
47761;BME280;33524;55.434;38.520;2024-03-08T06:45:16;100030.44;;;-4.23;94.02
47761;BME280;33524;55.434;38.520;2024-03-08T06:47:48;100017.31;;;-4.08;94.11
47761;BME280;33524;55.434;38.520;2024-03-08T06:50:21;100032.38;;;-3.90;93.73
47761;BME280;33524;55.434;38.520;2024-03-08T06:53:12;100031.13;;;-3.70;93.67
47761;BME280;33524;55.434;38.520;2024-03-08T06:55:40;100028.31;;;-3.58;93.24
47761;BME280;33524;55.434;38.520;2024-03-08T06:58:08;100006.31;;;-3.70;92.26
47761;BME280;33524;55.434;38.520;2024-03-08T07:00:38;100034.63;;;-3.31;92.35
47761;BME280;33524;55.434;38.520;2024-03-08T07:03:10;100032.72;;;-3.63;90.91
47761;BME280;33524;55.434;38.520;2024-03-08T07:05:40;100033.09;;;-3.39;92.75
47761;BME280;33524;55.434;38.520;2024-03-08T07:08:08;100044.59;;;-4.01;89.36
47761;BME280;33524;55.434;38.520;2024-03-08T07:10:37;100051.75;;;-3.72;90.85
47761;BME280;33524;55.434;38.520;2024-03-08T07:13:05;100035.16;;;-3.57;90.77
47761;BME280;33524;55.434;38.520;2024-03-08T07:15:33;100037.97;;;-3.27;91.76
47761;BME280;33524;55.434;38.520;2024-03-08T07:18:03;100036.87;;;-3.17;89.42
47761;BME280;33524;55.434;38.520;2024-03-08T07:20:31;100035.59;;;-3.36;88.46
47761;BME280;33524;55.434;38.520;2024-03-08T07:22:59;100029.44;;;-2.90;90.79
47761;BME280;33524;55.434;38.520;2024-03-08T07:25:27;100032.41;;;-3.48;88.31
47761;BME280;33524;55.434;38.520;2024-03-08T07:27:57;100025.47;;;-3.03;91.37
47761;BME280;33524;55.434;38.520;2024-03-08T07:30:26;100028.06;;;-3.46;87.56
47761;BME280;33524;55.434;38.520;2024-03-08T07:33:17;100000.59;;;-3.05;89.16
47761;BME280;33524;55.434;38.520;2024-03-08T07:35:46;100020.50;;;-2.39;88.63
47761;BME280;33524;55.434;38.520;2024-03-08T07:38:14;100008.59;;;-2.79;85.29
47761;BME280;33524;55.434;38.520;2024-03-08T07:40:42;99986.72;;;-2.61;87.43
47761;BME280;33524;55.434;38.520;2024-03-08T07:43:14;100007.00;;;-2.15;86.41
47761;BME280;33524;55.434;38.520;2024-03-08T07:45:42;100013.37;;;-2.30;87.76
47761;BME280;33524;55.434;38.520;2024-03-08T07:48:11;100015.72;;;-1.88;86.97
47761;BME280;33524;55.434;38.520;2024-03-08T07:50:41;100017.84;;;-1.72;86.01
47761;BME280;33524;55.434;38.520;2024-03-08T07:53:09;100016.00;;;-1.37;84.09
47761;BME280;33524;55.434;38.520;2024-03-08T07:55:37;100006.09;;;-1.23;84.60
47761;BME280;33524;55.434;38.520;2024-03-08T07:58:08;99999.78;;;-1.72;82.49
47761;BME280;33524;55.434;38.520;2024-03-08T08:00:39;100007.03;;;-1.55;82.19
47761;BME280;33524;55.434;38.520;2024-03-08T08:03:08;99999.63;;;-2.29;82.47
47761;BME280;33524;55.434;38.520;2024-03-08T08:05:37;99999.28;;;-2.49;82.74
47761;BME280;33524;55.434;38.520;2024-03-08T08:08:08;99995.50;;;-2.03;82.35
47761;BME280;33524;55.434;38.520;2024-03-08T08:10:39;99997.00;;;-1.65;82.53
47761;BME280;33524;55.434;38.520;2024-03-08T08:13:07;99986.56;;;-1.60;82.08
47761;BME280;33524;55.434;38.520;2024-03-08T08:15:36;99989.16;;;-2.22;81.03
47761;BME280;33524;55.434;38.520;2024-03-08T08:18:04;99997.25;;;-2.05;81.42
47761;BME280;33524;55.434;38.520;2024-03-08T08:20:34;100003.84;;;-2.26;80.86
47761;BME280;33524;55.434;38.520;2024-03-08T08:23:02;100002.75;;;-2.17;82.26
47761;BME280;33524;55.434;38.520;2024-03-08T08:25:31;99997.66;;;-1.88;81.89
47761;BME280;33524;55.434;38.520;2024-03-08T08:28:02;100001.03;;;-1.86;81.54
47761;BME280;33524;55.434;38.520;2024-03-08T08:30:33;100000.97;;;-1.84;79.53
47761;BME280;33524;55.434;38.520;2024-03-08T08:33:01;100001.88;;;-1.85;78.66
47761;BME280;33524;55.434;38.520;2024-03-08T08:35:29;99994.84;;;-2.11;79.60
47761;BME280;33524;55.434;38.520;2024-03-08T08:37:58;99996.34;;;-1.71;80.69
47761;BME280;33524;55.434;38.520;2024-03-08T08:40:26;100002.87;;;-1.91;79.32
47761;BME280;33524;55.434;38.520;2024-03-08T08:42:58;99997.69;;;-1.02;78.43
47761;BME280;33524;55.434;38.520;2024-03-08T08:45:27;99997.03;;;-1.66;77.44
47761;BME280;33524;55.434;38.520;2024-03-08T08:47:55;99996.09;;;-1.32;77.10
47761;BME280;33524;55.434;38.520;2024-03-08T08:50:23;100005.59;;;-1.34;76.53
47761;BME280;33524;55.434;38.520;2024-03-08T08:52:52;99998.59;;;-1.03;76.82
47761;BME280;33524;55.434;38.520;2024-03-08T08:55:24;99991.00;;;-1.07;75.46
47761;BME280;33524;55.434;38.520;2024-03-08T08:57:57;99988.25;;;-0.23;73.37
47761;BME280;33524;55.434;38.520;2024-03-08T09:00:25;99991.38;;;-0.39;73.48
47761;BME280;33524;55.434;38.520;2024-03-08T09:02:55;99974.72;;;-1.09;73.89
47761;BME280;33524;55.434;38.520;2024-03-08T09:05:27;99983.44;;;-0.60;73.49
47761;BME280;33524;55.434;38.520;2024-03-08T09:07:57;99986.91;;;-0.86;73.57
47761;BME280;33524;55.434;38.520;2024-03-08T09:10:25;99976.03;;;-1.52;74.46
47761;BME280;33524;55.434;38.520;2024-03-08T09:12:57;99981.41;;;-1.04;74.25
47761;BME280;33524;55.434;38.520;2024-03-08T09:15:24;99971.81;;;-0.98;73.99
47761;BME280;33524;55.434;38.520;2024-03-08T09:17:55;99973.56;;;-0.47;72.33
47761;BME280;33524;55.434;38.520;2024-03-08T09:20:23;99978.63;;;-0.19;71.59
47761;BME280;33524;55.434;38.520;2024-03-08T09:22:52;99981.47;;;-0.02;70.97
47761;BME280;33524;55.434;38.520;2024-03-08T09:25:21;99972.72;;;-0.48;71.69
47761;BME280;33524;55.434;38.520;2024-03-08T09:27:50;99982.12;;;-0.20;71.14
47761;BME280;33524;55.434;38.520;2024-03-08T09:30:18;99953.09;;;-0.78;72.35
47761;BME280;33524;55.434;38.520;2024-03-08T09:32:46;99962.91;;;-1.16;73.22
47761;BME280;33524;55.434;38.520;2024-03-08T09:35:15;99971.19;;;-0.53;72.82
47761;BME280;33524;55.434;38.520;2024-03-08T09:37:43;99968.28;;;-0.44;72.05
47761;BME280;33524;55.434;38.520;2024-03-08T09:40:10;99965.50;;;-0.63;72.30
47761;BME280;33524;55.434;38.520;2024-03-08T09:42:43;99971.66;;;-0.67;72.07
47761;BME280;33524;55.434;38.520;2024-03-08T09:45:12;99969.87;;;-0.40;71.37
47761;BME280;33524;55.434;38.520;2024-03-08T09:47:44;99958.38;;;-0.06;71.14
47761;BME280;33524;55.434;38.520;2024-03-08T09:50:13;99969.66;;;-0.34;71.14
47761;BME280;33524;55.434;38.520;2024-03-08T09:52:42;99968.03;;;-0.11;70.64
47761;BME280;33524;55.434;38.520;2024-03-08T09:55:11;99960.06;;;0.42;68.68
47761;BME280;33524;55.434;38.520;2024-03-08T09:57:41;99969.16;;;0.05;69.53
47761;BME280;33524;55.434;38.520;2024-03-08T10:00:25;99967.94;;;-0.08;70.22
47761;BME280;33524;55.434;38.520;2024-03-08T10:02:54;99965.19;;;0.66;68.48
47761;BME280;33524;55.434;38.520;2024-03-08T10:05:28;99964.88;;;0.04;69.86
47761;BME280;33524;55.434;38.520;2024-03-08T10:07:56;99973.75;;;0.90;67.46
47761;BME280;33524;55.434;38.520;2024-03-08T10:10:26;99957.19;;;1.16;66.43
47761;BME280;33524;55.434;38.520;2024-03-08T10:12:55;99963.66;;;1.47;65.50
47761;BME280;33524;55.434;38.520;2024-03-08T10:15:27;99950.59;;;1.91;64.91
47761;BME280;33524;55.434;38.520;2024-03-08T10:18:00;99959.25;;;0.86;66.36
47761;BME280;33524;55.434;38.520;2024-03-08T10:20:33;99947.09;;;1.30;64.91
47761;BME280;33524;55.434;38.520;2024-03-08T10:23:01;99938.69;;;2.43;61.85
47761;BME280;33524;55.434;38.520;2024-03-08T10:25:38;99956.94;;;1.63;63.64
47761;BME280;33524;55.434;38.520;2024-03-08T10:28:07;99931.63;;;1.70;64.36
47761;BME280;33524;55.434;38.520;2024-03-08T10:30:35;99932.66;;;1.66;63.71
47761;BME280;33524;55.434;38.520;2024-03-08T10:33:03;99939.75;;;1.81;63.97
47761;BME280;33524;55.434;38.520;2024-03-08T10:35:33;99938.78;;;1.42;65.14
47761;BME280;33524;55.434;38.520;2024-03-08T10:38:05;99939.34;;;1.30;65.35
47761;BME280;33524;55.434;38.520;2024-03-08T10:40:39;99936.28;;;1.41;65.38
47761;BME280;33524;55.434;38.520;2024-03-08T10:43:18;99936.03;;;1.47;65.62
47761;BME280;33524;55.434;38.520;2024-03-08T10:48:47;99938.41;;;0.89;68.13
47761;BME280;33524;55.434;38.520;2024-03-08T10:51:18;99914.22;;;1.92;64.89
47761;BME280;33524;55.434;38.520;2024-03-08T10:53:48;99930.69;;;1.50;65.08
47761;BME280;33524;55.434;38.520;2024-03-08T10:56:18;99944.28;;;1.14;66.49
47761;BME280;33524;55.434;38.520;2024-03-08T10:58:47;99934.19;;;1.08;67.07
47761;BME280;33524;55.434;38.520;2024-03-08T11:01:15;99932.22;;;0.71;68.16
47761;BME280;33524;55.434;38.520;2024-03-08T11:03:44;99934.34;;;0.83;68.06
47761;BME280;33524;55.434;38.520;2024-03-08T11:09:18;99938.59;;;0.62;69.44
47761;BME280;33524;55.434;38.520;2024-03-08T11:14:49;99937.88;;;0.58;70.02
47761;BME280;33524;55.434;38.520;2024-03-08T11:20:13;99933.88;;;0.28;70.96
47761;BME280;33524;55.434;38.520;2024-03-08T11:25:37;99927.22;;;0.88;69.13
47761;BME280;33524;55.434;38.520;2024-03-08T11:33:28;99928.44;;;1.42;68.08
47761;BME280;33524;55.434;38.520;2024-03-08T11:38:46;99933.34;;;1.08;68.59
47761;BME280;33524;55.434;38.520;2024-03-08T11:41:22;99930.91;;;1.03;68.91
47761;BME280;33524;55.434;38.520;2024-03-08T11:44:03;99937.03;;;0.80;70.25
47761;BME280;33524;55.434;38.520;2024-03-08T11:46:35;99933.59;;;1.02;69.88
47761;BME280;33524;55.434;38.520;2024-03-08T11:49:03;99930.09;;;1.03;69.50
47761;BME280;33524;55.434;38.520;2024-03-08T11:51:31;99927.97;;;1.12;69.60
47761;BME280;33524;55.434;38.520;2024-03-08T11:54:01;99928.06;;;1.52;68.48
47761;BME280;33524;55.434;38.520;2024-03-08T11:56:29;99929.09;;;1.48;69.31
47761;BME280;33524;55.434;38.520;2024-03-08T11:58:57;99931.38;;;1.35;68.63
47761;BME280;33524;55.434;38.520;2024-03-08T12:01:25;99934.91;;;1.32;67.93
47761;BME280;33524;55.434;38.520;2024-03-08T12:03:57;99928.62;;;1.38;67.56
47761;BME280;33524;55.434;38.520;2024-03-08T12:06:37;99923.97;;;1.46;67.52
47761;BME280;33524;55.434;38.520;2024-03-08T12:09:10;99935.31;;;1.44;67.52
47761;BME280;33524;55.434;38.520;2024-03-08T12:11:39;99931.94;;;1.41;67.91
47761;BME280;33524;55.434;38.520;2024-03-08T12:14:09;99932.19;;;1.35;68.09
47761;BME280;33524;55.434;38.520;2024-03-08T12:16:38;99926.94;;;1.16;68.37
47761;BME280;33524;55.434;38.520;2024-03-08T12:19:06;99931.41;;;1.13;68.66
47761;BME280;33524;55.434;38.520;2024-03-08T12:21:35;99927.59;;;1.21;68.66
47761;BME280;33524;55.434;38.520;2024-03-08T12:24:08;99926.09;;;1.57;67.82
47761;BME280;33524;55.434;38.520;2024-03-08T12:26:38;99929.28;;;1.43;67.97
47761;BME280;33524;55.434;38.520;2024-03-08T12:29:20;99926.34;;;1.10;68.75
47761;BME280;33524;55.434;38.520;2024-03-08T12:31:52;99926.88;;;1.38;68.30
47761;BME280;33524;55.434;38.520;2024-03-08T12:34:22;99926.03;;;1.17;69.56
47761;BME280;33524;55.434;38.520;2024-03-08T12:36:52;99926.69;;;1.23;69.90
47761;BME280;33524;55.434;38.520;2024-03-08T12:39:23;99924.47;;;1.13;70.73
47761;BME280;33524;55.434;38.520;2024-03-08T12:41:56;99919.19;;;0.94;70.83
47761;BME280;33524;55.434;38.520;2024-03-08T12:44:30;99917.00;;;0.85;71.09
47761;BME280;33524;55.434;38.520;2024-03-08T12:46:58;99930.56;;;0.68;71.62
47761;BME280;33524;55.434;38.520;2024-03-08T12:49:27;99933.13;;;0.48;71.91
47761;BME280;33524;55.434;38.520;2024-03-08T12:51:55;99921.38;;;0.61;71.85
47761;BME280;33524;55.434;38.520;2024-03-08T12:54:27;99915.84;;;0.25;73.14
47761;BME280;33524;55.434;38.520;2024-03-08T12:56:55;99924.97;;;0.35;73.35
47761;BME280;33524;55.434;38.520;2024-03-08T12:59:23;99922.03;;;0.20;74.12
47761;BME280;33524;55.434;38.520;2024-03-08T13:01:51;99930.66;;;0.21;74.15
47761;BME280;33524;55.434;38.520;2024-03-08T13:04:21;99940.72;;;0.05;74.77
47761;BME280;33524;55.434;38.520;2024-03-08T13:06:50;99947.81;;;0.00;74.89
47761;BME280;33524;55.434;38.520;2024-03-08T13:09:22;99943.94;;;-0.12;75.52
47761;BME280;33524;55.434;38.520;2024-03-08T13:11:50;99947.47;;;0.09;74.85
47761;BME280;33524;55.434;38.520;2024-03-08T13:14:19;99952.91;;;0.02;75.63
47761;BME280;33524;55.434;38.520;2024-03-08T13:16:47;99949.00;;;-0.34;76.45
47761;BME280;33524;55.434;38.520;2024-03-08T13:19:16;99955.19;;;-0.65;77.98